< < Back
Terminal Aerodrome Forecast


Current Version              Previous Versions:   1  2  3  4  5  6  7  8  9  

Terminal Aerodrome Forecast

784
FTUS42 KMLB 241100
TAFMCO
TAF
KMCO 241130Z 2412/2512 00000KT P6SM SKC
      TEMPO 2412/2413 4SM BR BKN003
     FM241500 16005KT P6SM FEW035
     FM242200 13009KT P6SM SCT050
     FM250200 15004KT P6SM FEW050 BKN250=

Latest METAR

267
SAUS70 KWBC 242100 RRD
MTRMCO
METAR KMCO 242053Z COR 14010KT 10SM SCT060 SCT080 31/16 A2992 RMK AO2
SLP131 60000 T03110156 58019


USA.gov is the U.S. government's official web portal to all federal, state and local government web resources and services.